sensor_id;sensor_type;location;lat;lon;timestamp;temperature;humidity
20735;DHT22;10528;52.124;5.196;2023-03-01T00:01:37;0.00;99.90
20735;DHT22;10528;52.124;5.196;2023-03-01T00:04:04;0.00;99.90
20735;DHT22;10528;52.124;5.196;2023-03-01T00:06:31;-0.10;99.90
20735;DHT22;10528;52.124;5.196;2023-03-01T00:08:58;-0.10;99.90
20735;DHT22;10528;52.124;5.196;2023-03-01T00:11:28;-0.10;99.90
20735;DHT22;10528;52.124;5.196;2023-03-01T00:13:59;-0.10;99.90
20735;DHT22;10528;52.124;5.196;2023-03-01T00:16:30;-0.10;99.90
20735;DHT22;10528;52.124;5.196;2023-03-01T00:19:00;-0.10;99.90
20735;DHT22;10528;52.124;5.196;2023-03-01T00:21:28;-0.10;99.90
20735;DHT22;10528;52.124;5.196;2023-03-01T00:23:55;-0.10;99.90
20735;DHT22;10528;52.124;5.196;2023-03-01T00:26:24;-0.20;99.90
20735;DHT22;10528;52.124;5.196;2023-03-01T00:28:52;-0.20;99.90
20735;DHT22;10528;52.124;5.196;2023-03-01T00:31:22;-0.30;99.90
20735;DHT22;10528;52.124;5.196;2023-03-01T00:33:55;-0.30;99.90
20735;DHT22;10528;52.124;5.196;2023-03-01T00:36:28;-0.30;99.90
20735;DHT22;10528;52.124;5.196;2023-03-01T00:38:59;-0.30;99.90
20735;DHT22;10528;52.124;5.196;2023-03-01T00:41:26;-0.40;99.90
20735;DHT22;10528;52.124;5.196;2023-03-01T00:43:53;-0.30;99.90
20735;DHT22;10528;52.124;5.196;2023-03-01T00:46:23;-0.30;99.90
20735;DHT22;10528;52.124;5.196;2023-03-01T00:48:51;-0.30;99.90
20735;DHT22;10528;52.124;5.196;2023-03-01T00:51:20;-0.30;99.90
20735;DHT22;10528;52.124;5.196;2023-03-01T00:53:57;-0.30;99.90
20735;DHT22;10528;52.124;5.196;2023-03-01T00:56:26;-0.30;99.90
20735;DHT22;10528;52.124;5.196;2023-03-01T00:58:54;-0.40;99.90
20735;DHT22;10528;52.124;5.196;2023-03-01T01:01:23;-0.40;99.90
20735;DHT22;10528;52.124;5.196;2023-03-01T01:03:56;-0.30;99.90
20735;DHT22;10528;52.124;5.196;2023-03-01T01:06:28;-0.40;99.90
20735;DHT22;10528;52.124;5.196;2023-03-01T01:08:57;-0.40;99.90
20735;DHT22;10528;52.124;5.196;2023-03-01T01:11:27;-0.40;99.90
20735;DHT22;10528;52.124;5.196;2023-03-01T01:13:56;-0.40;99.90
20735;DHT22;10528;52.124;5.196;2023-03-01T01:16:26;-0.40;99.90
20735;DHT22;10528;52.124;5.196;2023-03-01T01:18:56;-0.40;99.90
20735;DHT22;10528;52.124;5.196;2023-03-01T01:21:24;-0.40;99.90
20735;DHT22;10528;52.124;5.196;2023-03-01T01:23:52;-0.40;99.90
20735;DHT22;10528;52.124;5.196;2023-03-01T01:26:25;-0.40;99.90
20735;DHT22;10528;52.124;5.196;2023-03-01T01:28:55;-0.50;99.90
20735;DHT22;10528;52.124;5.196;2023-03-01T01:31:24;-0.50;99.90
20735;DHT22;10528;52.124;5.196;2023-03-01T01:33:52;-0.50;99.90
20735;DHT22;10528;52.124;5.196;2023-03-01T01:36:20;-0.50;99.90
20735;DHT22;10528;52.124;5.196;2023-03-01T01:38:48;-0.60;99.90
20735;DHT22;10528;52.124;5.196;2023-03-01T01:41:16;-0.60;99.90
20735;DHT22;10528;52.124;5.196;2023-03-01T01:46:53;-0.70;99.90
20735;DHT22;10528;52.124;5.196;2023-03-01T01:49:47;-0.80;99.90
20735;DHT22;10528;52.124;5.196;2023-03-01T01:52:26;-0.70;99.90
20735;DHT22;10528;52.124;5.196;2023-03-01T01:57:40;-0.70;99.90
20735;DHT22;10528;52.124;5.196;2023-03-01T02:00:13;-0.70;99.90
20735;DHT22;10528;52.124;5.196;2023-03-01T02:02:48;-0.70;99.90
20735;DHT22;10528;52.124;5.196;2023-03-01T02:05:36;-0.80;99.90
20735;DHT22;10528;52.124;5.196;2023-03-01T02:08:27;-0.80;99.90
20735;DHT22;10528;52.124;5.196;2023-03-01T02:10:57;-0.80;99.90
20735;DHT22;10528;52.124;5.196;2023-03-01T02:13:27;-0.80;99.90
20735;DHT22;10528;52.124;5.196;2023-03-01T02:15:54;-0.80;99.90
20735;DHT22;10528;52.124;5.196;2023-03-01T02:18:23;-0.80;99.90
20735;DHT22;10528;52.124;5.196;2023-03-01T02:23:38;-0.90;99.90
20735;DHT22;10528;52.124;5.196;2023-03-01T02:26:21;-0.80;99.90
20735;DHT22;10528;52.124;5.196;2023-03-01T02:28:58;-0.90;99.90
20735;DHT22;10528;52.124;5.196;2023-03-01T02:31:25;-0.90;99.90
20735;DHT22;10528;52.124;5.196;2023-03-01T02:34:14;-0.90;99.90
20735;DHT22;10528;52.124;5.196;2023-03-01T02:36:56;-0.90;99.90
20735;DHT22;10528;52.124;5.196;2023-03-01T02:39:38;-0.90;99.90
20735;DHT22;10528;52.124;5.196;2023-03-01T02:42:21;-1.00;99.90
20735;DHT22;10528;52.124;5.196;2023-03-01T02:44:52;-1.00;99.90
20735;DHT22;10528;52.124;5.196;2023-03-01T02:47:20;-0.90;99.90
20735;DHT22;10528;52.124;5.196;2023-03-01T02:49:46;-0.90;99.90
20735;DHT22;10528;52.124;5.196;2023-03-01T02:55:11;-1.00;99.90
20735;DHT22;10528;52.124;5.196;2023-03-01T02:57:43;-1.10;99.90
20735;DHT22;10528;52.124;5.196;2023-03-01T03:00:40;-1.10;99.90
20735;DHT22;10528;52.124;5.196;2023-03-01T03:03:17;-1.00;99.90
20735;DHT22;10528;52.124;5.196;2023-03-01T03:05:47;-1.10;99.90
20735;DHT22;10528;52.124;5.196;2023-03-01T03:08:15;-1.10;99.90
20735;DHT22;10528;52.124;5.196;2023-03-01T03:10:50;-1.10;99.90
20735;DHT22;10528;52.124;5.196;2023-03-01T03:13:18;-1.10;99.90
20735;DHT22;10528;52.124;5.196;2023-03-01T03:15:45;-1.10;99.90
20735;DHT22;10528;52.124;5.196;2023-03-01T03:18:15;-1.20;99.90
20735;DHT22;10528;52.124;5.196;2023-03-01T03:20:44;-1.20;99.90
20735;DHT22;10528;52.124;5.196;2023-03-01T03:23:12;-1.20;99.90
20735;DHT22;10528;52.124;5.196;2023-03-01T03:25:39;-1.20;99.90
20735;DHT22;10528;52.124;5.196;2023-03-01T03:28:07;-1.20;99.90
20735;DHT22;10528;52.124;5.196;2023-03-01T03:30:39;-1.20;99.90
20735;DHT22;10528;52.124;5.196;2023-03-01T03:33:07;-1.20;99.90
20735;DHT22;10528;52.124;5.196;2023-03-01T03:35:44;-1.20;99.90
20735;DHT22;10528;52.124;5.196;2023-03-01T03:38:14;-1.30;99.90
20735;DHT22;10528;52.124;5.196;2023-03-01T03:40:51;-1.30;99.90
20735;DHT22;10528;52.124;5.196;2023-03-01T03:43:30;-1.20;99.90
20735;DHT22;10528;52.124;5.196;2023-03-01T03:45:58;-1.20;99.90
20735;DHT22;10528;52.124;5.196;2023-03-01T03:48:26;-1.20;99.90
20735;DHT22;10528;52.124;5.196;2023-03-01T03:50:54;-1.30;99.90
20735;DHT22;10528;52.124;5.196;2023-03-01T03:53:24;-1.30;99.90
20735;DHT22;10528;52.124;5.196;2023-03-01T03:55:52;-1.30;99.90
20735;DHT22;10528;52.124;5.196;2023-03-01T03:58:22;-1.30;99.90
20735;DHT22;10528;52.124;5.196;2023-03-01T04:00:52;-1.40;99.90
20735;DHT22;10528;52.124;5.196;2023-03-01T04:03:25;-1.40;99.90
20735;DHT22;10528;52.124;5.196;2023-03-01T04:05:54;-1.50;99.90
20735;DHT22;10528;52.124;5.196;2023-03-01T04:08:24;-1.50;99.90
20735;DHT22;10528;52.124;5.196;2023-03-01T04:10:56;-1.50;99.90
20735;DHT22;10528;52.124;5.196;2023-03-01T04:13:25;-1.50;99.90
20735;DHT22;10528;52.124;5.196;2023-03-01T04:15:53;-1.50;99.90
20735;DHT22;10528;52.124;5.196;2023-03-01T04:18:22;-1.50;99.90
20735;DHT22;10528;52.124;5.196;2023-03-01T04:20:53;-1.50;99.90
20735;DHT22;10528;52.124;5.196;2023-03-01T04:23:21;-1.50;99.90
20735;DHT22;10528;52.124;5.196;2023-03-01T04:25:55;-1.50;99.90
20735;DHT22;10528;52.124;5.196;2023-03-01T04:28:28;-1.50;99.90
20735;DHT22;10528;52.124;5.196;2023-03-01T04:31:06;-1.50;99.90
20735;DHT22;10528;52.124;5.196;2023-03-01T04:33:46;-1.50;99.90
20735;DHT22;10528;52.124;5.196;2023-03-01T04:36:16;-1.60;99.90
20735;DHT22;10528;52.124;5.196;2023-03-01T04:38:45;-1.60;99.90
20735;DHT22;10528;52.124;5.196;2023-03-01T04:41:16;-1.60;99.90
20735;DHT22;10528;52.124;5.196;2023-03-01T04:43:44;-1.50;99.90
20735;DHT22;10528;52.124;5.196;2023-03-01T04:46:15;-1.60;99.90
20735;DHT22;10528;52.124;5.196;2023-03-01T04:48:45;-1.60;99.90
20735;DHT22;10528;52.124;5.196;2023-03-01T04:51:14;-1.60;99.90
20735;DHT22;10528;52.124;5.196;2023-03-01T04:53:42;-1.60;99.90
20735;DHT22;10528;52.124;5.196;2023-03-01T04:56:10;-1.70;99.90
20735;DHT22;10528;52.124;5.196;2023-03-01T04:58:38;-1.70;99.90
20735;DHT22;10528;52.124;5.196;2023-03-01T05:01:12;-1.70;99.90
20735;DHT22;10528;52.124;5.196;2023-03-01T05:03:43;-1.80;99.90
20735;DHT22;10528;52.124;5.196;2023-03-01T05:06:12;-1.80;99.90
20735;DHT22;10528;52.124;5.196;2023-03-01T05:08:40;-1.70;99.90
20735;DHT22;10528;52.124;5.196;2023-03-01T05:11:08;-1.70;99.90
20735;DHT22;10528;52.124;5.196;2023-03-01T05:13:36;-1.60;99.90
20735;DHT22;10528;52.124;5.196;2023-03-01T05:16:06;-1.60;99.90
20735;DHT22;10528;52.124;5.196;2023-03-01T05:18:38;-1.60;99.90
20735;DHT22;10528;52.124;5.196;2023-03-01T05:21:14;-1.60;99.90
20735;DHT22;10528;52.124;5.196;2023-03-01T05:23:42;-1.70;99.90
20735;DHT22;10528;52.124;5.196;2023-03-01T05:26:09;-1.80;99.90
20735;DHT22;10528;52.124;5.196;2023-03-01T05:28:58;-1.80;99.90
20735;DHT22;10528;52.124;5.196;2023-03-01T05:31:27;-1.80;99.90
20735;DHT22;10528;52.124;5.196;2023-03-01T05:33:54;-1.80;99.90
20735;DHT22;10528;52.124;5.196;2023-03-01T05:36:21;-1.80;99.90
20735;DHT22;10528;52.124;5.196;2023-03-01T05:38:48;-1.80;99.90
20735;DHT22;10528;52.124;5.196;2023-03-01T05:41:15;-1.90;99.90
20735;DHT22;10528;52.124;5.196;2023-03-01T05:43:43;-1.90;99.90
20735;DHT22;10528;52.124;5.196;2023-03-01T05:46:11;-1.90;99.90
20735;DHT22;10528;52.124;5.196;2023-03-01T05:48:40;-1.90;99.90
20735;DHT22;10528;52.124;5.196;2023-03-01T05:51:07;-1.90;99.90
20735;DHT22;10528;52.124;5.196;2023-03-01T05:53:33;-1.90;99.90
20735;DHT22;10528;52.124;5.196;2023-03-01T05:56:03;-2.00;99.90
20735;DHT22;10528;52.124;5.196;2023-03-01T05:58:31;-1.90;99.90
20735;DHT22;10528;52.124;5.196;2023-03-01T06:00:58;-2.00;99.90
20735;DHT22;10528;52.124;5.196;2023-03-01T06:03:25;-2.00;99.90
20735;DHT22;10528;52.124;5.196;2023-03-01T06:05:57;-2.00;99.90
20735;DHT22;10528;52.124;5.196;2023-03-01T06:08:25;-2.00;99.90
20735;DHT22;10528;52.124;5.196;2023-03-01T06:10:53;-2.00;99.90
20735;DHT22;10528;52.124;5.196;2023-03-01T06:13:20;-2.00;99.90
20735;DHT22;10528;52.124;5.196;2023-03-01T06:15:47;-1.90;99.90
20735;DHT22;10528;52.124;5.196;2023-03-01T06:18:15;-1.90;99.90
20735;DHT22;10528;52.124;5.196;2023-03-01T06:20:42;-2.00;99.90
20735;DHT22;10528;52.124;5.196;2023-03-01T06:23:08;-2.00;99.90
20735;DHT22;10528;52.124;5.196;2023-03-01T06:25:37;-2.00;99.90
20735;DHT22;10528;52.124;5.196;2023-03-01T06:28:04;-2.00;99.90
20735;DHT22;10528;52.124;5.196;2023-03-01T06:30:31;-2.00;99.90
20735;DHT22;10528;52.124;5.196;2023-03-01T06:32:58;-2.00;99.90
20735;DHT22;10528;52.124;5.196;2023-03-01T06:35:29;-2.00;99.90
20735;DHT22;10528;52.124;5.196;2023-03-01T06:37:58;-1.90;99.90
20735;DHT22;10528;52.124;5.196;2023-03-01T06:40:26;-1.90;99.90
20735;DHT22;10528;52.124;5.196;2023-03-01T06:42:54;-1.90;99.90
20735;DHT22;10528;52.124;5.196;2023-03-01T06:45:21;-1.90;99.90
20735;DHT22;10528;52.124;5.196;2023-03-01T06:47:48;-1.90;99.90
20735;DHT22;10528;52.124;5.196;2023-03-01T06:50:16;-1.90;99.90
20735;DHT22;10528;52.124;5.196;2023-03-01T06:52:44;-1.90;99.90
20735;DHT22;10528;52.124;5.196;2023-03-01T06:55:12;-1.80;99.90
20735;DHT22;10528;52.124;5.196;2023-03-01T06:57:39;-1.80;99.90
20735;DHT22;10528;52.124;5.196;2023-03-01T07:00:06;-1.80;99.90
20735;DHT22;10528;52.124;5.196;2023-03-01T07:02:34;-1.80;99.90
20735;DHT22;10528;52.124;5.196;2023-03-01T07:05:01;-1.80;99.90
20735;DHT22;10528;52.124;5.196;2023-03-01T07:07:28;-1.80;99.90
20735;DHT22;10528;52.124;5.196;2023-03-01T07:09:55;-1.70;99.90
20735;DHT22;10528;52.124;5.196;2023-03-01T07:12:22;-1.60;99.90
20735;DHT22;10528;52.124;5.196;2023-03-01T07:14:49;-1.50;99.90
20735;DHT22;10528;52.124;5.196;2023-03-01T07:17:16;-1.40;99.90
20735;DHT22;10528;52.124;5.196;2023-03-01T07:19:42;-1.30;99.90
20735;DHT22;10528;52.124;5.196;2023-03-01T07:22:11;-1.30;99.90
20735;DHT22;10528;52.124;5.196;2023-03-01T07:24:38;-1.20;99.90
20735;DHT22;10528;52.124;5.196;2023-03-01T07:27:04;-1.20;99.90
20735;DHT22;10528;52.124;5.196;2023-03-01T07:29:31;-1.10;99.90
20735;DHT22;10528;52.124;5.196;2023-03-01T07:31:58;-1.10;99.90
20735;DHT22;10528;52.124;5.196;2023-03-01T07:34:25;-1.10;99.90
20735;DHT22;10528;52.124;5.196;2023-03-01T07:36:52;-1.10;99.90
20735;DHT22;10528;52.124;5.196;2023-03-01T07:39:19;-1.00;99.90
20735;DHT22;10528;52.124;5.196;2023-03-01T07:41:46;-0.90;99.90
20735;DHT22;10528;52.124;5.196;2023-03-01T07:44:13;-0.90;99.90
20735;DHT22;10528;52.124;5.196;2023-03-01T07:46:40;-0.80;99.90
20735;DHT22;10528;52.124;5.196;2023-03-01T07:49:06;-0.70;99.90
20735;DHT22;10528;52.124;5.196;2023-03-01T07:51:33;-0.70;99.90
20735;DHT22;10528;52.124;5.196;2023-03-01T07:54:00;-0.60;99.90
20735;DHT22;10528;52.124;5.196;2023-03-01T07:56:27;-0.50;99.90
20735;DHT22;10528;52.124;5.196;2023-03-01T07:58:55;-0.30;99.90
20735;DHT22;10528;52.124;5.196;2023-03-01T08:01:22;-0.30;99.90
20735;DHT22;10528;52.124;5.196;2023-03-01T08:03:49;-0.10;99.90
20735;DHT22;10528;52.124;5.196;2023-03-01T08:06:17;0.00;99.90
20735;DHT22;10528;52.124;5.196;2023-03-01T08:08:45;0.20;99.90
20735;DHT22;10528;52.124;5.196;2023-03-01T08:11:14;0.40;99.90
20735;DHT22;10528;52.124;5.196;2023-03-01T08:13:42;0.50;99.90
20735;DHT22;10528;52.124;5.196;2023-03-01T08:16:12;0.70;99.90
20735;DHT22;10528;52.124;5.196;2023-03-01T08:18:40;0.80;99.90
20735;DHT22;10528;52.124;5.196;2023-03-01T08:21:13;0.90;99.90
20735;DHT22;10528;52.124;5.196;2023-03-01T08:23:42;0.90;99.90
20735;DHT22;10528;52.124;5.196;2023-03-01T08:26:18;1.00;99.90
20735;DHT22;10528;52.124;5.196;2023-03-01T08:28:49;1.00;99.90
20735;DHT22;10528;52.124;5.196;2023-03-01T08:31:29;1.20;99.90
20735;DHT22;10528;52.124;5.196;2023-03-01T08:34:04;1.30;99.90
20735;DHT22;10528;52.124;5.196;2023-03-01T08:36:36;1.40;99.90
20735;DHT22;10528;52.124;5.196;2023-03-01T08:39:08;1.40;99.90
20735;DHT22;10528;52.124;5.196;2023-03-01T08:41:37;1.60;99.90
20735;DHT22;10528;52.124;5.196;2023-03-01T08:44:04;1.60;99.90
20735;DHT22;10528;52.124;5.196;2023-03-01T08:46:40;1.70;99.90
20735;DHT22;10528;52.124;5.196;2023-03-01T08:49:16;1.80;99.90
20735;DHT22;10528;52.124;5.196;2023-03-01T08:51:45;1.80;99.90
20735;DHT22;10528;52.124;5.196;2023-03-01T08:54:15;1.80;99.90
20735;DHT22;10528;52.124;5.196;2023-03-01T08:56:45;2.00;99.90
20735;DHT22;10528;52.124;5.196;2023-03-01T08:59:13;2.10;99.90
20735;DHT22;10528;52.124;5.196;2023-03-01T09:01:41;2.20;99.90
20735;DHT22;10528;52.124;5.196;2023-03-01T09:04:12;2.30;99.90
20735;DHT22;10528;52.124;5.196;2023-03-01T09:06:41;2.30;99.90
20735;DHT22;10528;52.124;5.196;2023-03-01T09:09:16;2.40;99.90
20735;DHT22;10528;52.124;5.196;2023-03-01T09:11:45;2.50;99.90
20735;DHT22;10528;52.124;5.196;2023-03-01T09:14:13;2.60;99.90
20735;DHT22;10528;52.124;5.196;2023-03-01T09:16:41;2.70;99.90
20735;DHT22;10528;52.124;5.196;2023-03-01T09:19:08;2.70;99.90
20735;DHT22;10528;52.124;5.196;2023-03-01T09:21:35;2.70;99.90
20735;DHT22;10528;52.124;5.196;2023-03-01T09:24:12;2.80;99.90
20735;DHT22;10528;52.124;5.196;2023-03-01T09:26:41;3.00;99.90
20735;DHT22;10528;52.124;5.196;2023-03-01T09:29:09;3.10;99.90
20735;DHT22;10528;52.124;5.196;2023-03-01T09:31:37;3.20;99.90
20735;DHT22;10528;52.124;5.196;2023-03-01T09:34:04;3.30;99.90
20735;DHT22;10528;52.124;5.196;2023-03-01T09:36:32;3.40;99.90
20735;DHT22;10528;52.124;5.196;2023-03-01T09:39:00;3.40;99.90
20735;DHT22;10528;52.124;5.196;2023-03-01T09:47:31;3.80;99.90
20735;DHT22;10528;52.124;5.196;2023-03-01T09:50:11;3.90;99.90
20735;DHT22;10528;52.124;5.196;2023-03-01T09:55:49;4.30;99.90
20735;DHT22;10528;52.124;5.196;2023-03-01T09:58:51;4.40;99.90
20735;DHT22;10528;52.124;5.196;2023-03-01T10:01:55;4.60;99.90
20735;DHT22;10528;52.124;5.196;2023-03-01T10:04:49;4.60;99.90
20735;DHT22;10528;52.124;5.196;2023-03-01T10:10:43;4.90;99.90
20735;DHT22;10528;52.124;5.196;2023-03-01T10:16:13;5.00;99.90
20735;DHT22;10528;52.124;5.196;2023-03-01T10:18:46;4.90;99.90
20735;DHT22;10528;52.124;5.196;2023-03-01T10:21:18;5.10;99.90
20735;DHT22;10528;52.124;5.196;2023-03-01T10:23:50;5.30;99.90
20735;DHT22;10528;52.124;5.196;2023-03-01T10:26:35;5.40;99.90
20735;DHT22;10528;52.124;5.196;2023-03-01T10:29:12;5.50;99.90
20735;DHT22;10528;52.124;5.196;2023-03-01T10:31:50;5.60;99.90
20735;DHT22;10528;52.124;5.196;2023-03-01T10:34:27;5.80;99.90
20735;DHT22;10528;52.124;5.196;2023-03-01T10:37:20;5.90;99.90
20735;DHT22;10528;52.124;5.196;2023-03-01T10:40:03;5.90;99.90
20735;DHT22;10528;52.124;5.196;2023-03-01T10:42:39;6.00;99.90
20735;DHT22;10528;52.124;5.196;2023-03-01T10:45:22;5.90;99.90
20735;DHT22;10528;52.124;5.196;2023-03-01T10:48:05;6.10;99.90
20735;DHT22;10528;52.124;5.196;2023-03-01T10:50:43;6.30;99.90
20735;DHT22;10528;52.124;5.196;2023-03-01T10:56:11;6.50;99.90
20735;DHT22;10528;52.124;5.196;2023-03-01T10:58:56;6.30;99.90
20735;DHT22;10528;52.124;5.196;2023-03-01T11:01:33;6.60;99.90
20735;DHT22;10528;52.124;5.196;2023-03-01T11:06:33;6.60;99.90
20735;DHT22;10528;52.124;5.196;2023-03-01T11:09:14;6.70;99.90
20735;DHT22;10528;52.124;5.196;2023-03-01T11:11:44;6.70;99.90
20735;DHT22;10528;52.124;5.196;2023-03-01T11:14:37;6.80;99.90
20735;DHT22;10528;52.124;5.196;2023-03-01T11:17:29;7.00;99.90
20735;DHT22;10528;52.124;5.196;2023-03-01T11:22:48;6.90;99.90
20735;DHT22;10528;52.124;5.196;2023-03-01T11:25:23;7.10;99.90
20735;DHT22;10528;52.124;5.196;2023-03-01T11:27:54;7.20;99.90
20735;DHT22;10528;52.124;5.196;2023-03-01T11:30:30;7.30;99.90
20735;DHT22;10528;52.124;5.196;2023-03-01T11:33:16;7.10;99.90
20735;DHT22;10528;52.124;5.196;2023-03-01T11:38:55;7.10;99.90
20735;DHT22;10528;52.124;5.196;2023-03-01T11:41:26;7.30;99.90
20735;DHT22;10528;52.124;5.196;2023-03-01T11:44:04;7.10;99.90
20735;DHT22;10528;52.124;5.196;2023-03-01T11:52:35;7.20;99.90
20735;DHT22;10528;52.124;5.196;2023-03-01T12:01:30;7.40;99.90
20735;DHT22;10528;52.124;5.196;2023-03-01T12:04:13;7.50;99.90
20735;DHT22;10528;52.124;5.196;2023-03-01T12:07:09;7.70;99.90
20735;DHT22;10528;52.124;5.196;2023-03-01T12:13:05;7.60;99.90
20735;DHT22;10528;52.124;5.196;2023-03-01T12:22:17;7.40;99.90
20735;DHT22;10528;52.124;5.196;2023-03-01T12:34:23;7.70;99.90
20735;DHT22;10528;52.124;5.196;2023-03-01T12:37:17;7.70;99.90
20735;DHT22;10528;52.124;5.196;2023-03-01T12:39:53;7.60;99.90
20735;DHT22;10528;52.124;5.196;2023-03-01T12:43:30;7.70;99.90
20735;DHT22;10528;52.124;5.196;2023-03-01T12:52:03;7.60;99.90
20735;DHT22;10528;52.124;5.196;2023-03-01T12:54:39;7.80;99.90
20735;DHT22;10528;52.124;5.196;2023-03-01T12:57:33;7.60;99.90
20735;DHT22;10528;52.124;5.196;2023-03-01T13:03:24;7.40;99.90
20735;DHT22;10528;52.124;5.196;2023-03-01T13:06:14;7.70;99.90
20735;DHT22;10528;52.124;5.196;2023-03-01T13:11:30;7.60;99.90
20735;DHT22;10528;52.124;5.196;2023-03-01T13:16:53;7.60;99.90
20735;DHT22;10528;52.124;5.196;2023-03-01T13:19:23;7.50;99.90
20735;DHT22;10528;52.124;5.196;2023-03-01T13:21:53;7.50;99.90
20735;DHT22;10528;52.124;5.196;2023-03-01T13:29:54;7.70;99.90
20735;DHT22;10528;52.124;5.196;2023-03-01T13:32:33;7.70;99.90
20735;DHT22;10528;52.124;5.196;2023-03-01T13:37:46;7.80;99.90
20735;DHT22;10528;52.124;5.196;2023-03-01T13:42:50;7.70;99.90
20735;DHT22;10528;52.124;5.196;2023-03-01T13:45:42;7.60;99.90
20735;DHT22;10528;52.124;5.196;2023-03-01T13:48:16;7.80;99.90
20735;DHT22;10528;52.124;5.196;2023-03-01T13:50:55;7.90;99.90
20735;DHT22;10528;52.124;5.196;2023-03-01T13:53:30;7.70;99.90
20735;DHT22;10528;52.124;5.196;2023-03-01T13:56:21;7.70;99.90
20735;DHT22;10528;52.124;5.196;2023-03-01T13:58:58;7.60;99.90
20735;DHT22;10528;52.124;5.196;2023-03-01T14:01:31;7.70;99.90
20735;DHT22;10528;52.124;5.196;2023-03-01T14:04:01;7.60;99.90
20735;DHT22;10528;52.124;5.196;2023-03-01T14:06:32;7.70;99.90
20735;DHT22;10528;52.124;5.196;2023-03-01T14:09:17;7.60;99.90
20735;DHT22;10528;52.124;5.196;2023-03-01T14:12:02;7.90;99.90
20735;DHT22;10528;52.124;5.196;2023-03-01T14:14:46;7.80;99.90
20735;DHT22;10528;52.124;5.196;2023-03-01T14:20:02;7.70;99.90
20735;DHT22;10528;52.124;5.196;2023-03-01T14:22:41;7.60;99.90
20735;DHT22;10528;52.124;5.196;2023-03-01T14:25:32;7.70;99.90
20735;DHT22;10528;52.124;5.196;2023-03-01T14:30:54;7.70;99.90
20735;DHT22;10528;52.124;5.196;2023-03-01T14:33:35;7.70;99.90
20735;DHT22;10528;52.124;5.196;2023-03-01T14:36:09;7.70;99.90
20735;DHT22;10528;52.124;5.196;2023-03-01T14:38:43;7.70;99.90
20735;DHT22;10528;52.124;5.196;2023-03-01T14:41:20;7.80;99.90
20735;DHT22;10528;52.124;5.196;2023-03-01T14:43:58;7.70;99.90
20735;DHT22;10528;52.124;5.196;2023-03-01T14:46:36;7.80;99.90
20735;DHT22;10528;52.124;5.196;2023-03-01T14:49:16;7.70;99.90
20735;DHT22;10528;52.124;5.196;2023-03-01T14:52:06;7.70;99.90
20735;DHT22;10528;52.124;5.196;2023-03-01T14:54:52;7.70;99.90
20735;DHT22;10528;52.124;5.196;2023-03-01T14:57:23;7.70;99.90
20735;DHT22;10528;52.124;5.196;2023-03-01T14:59:57;7.60;99.90
20735;DHT22;10528;52.124;5.196;2023-03-01T15:02:28;7.70;99.90
20735;DHT22;10528;52.124;5.196;2023-03-01T15:04:58;7.70;99.90
20735;DHT22;10528;52.124;5.196;2023-03-01T15:07:31;7.70;99.90
20735;DHT22;10528;52.124;5.196;2023-03-01T15:10:03;7.70;99.90
20735;DHT22;10528;52.124;5.196;2023-03-01T15:12:39;7.70;99.90
20735;DHT22;10528;52.124;5.196;2023-03-01T15:17:57;7.70;99.90
20735;DHT22;10528;52.124;5.196;2023-03-01T15:20:28;7.60;99.90
20735;DHT22;10528;52.124;5.196;2023-03-01T15:22:58;7.70;99.90
20735;DHT22;10528;52.124;5.196;2023-03-01T15:25:28;7.80;99.90
20735;DHT22;10528;52.124;5.196;2023-03-01T15:27:58;7.80;99.90
20735;DHT22;10528;52.124;5.196;2023-03-01T15:30:32;7.70;99.90
20735;DHT22;10528;52.124;5.196;2023-03-01T15:33:35;7.70;99.90
20735;DHT22;10528;52.124;5.196;2023-03-01T15:36:30;7.70;99.90
20735;DHT22;10528;52.124;5.196;2023-03-01T15:39:35;7.60;99.90
20735;DHT22;10528;52.124;5.196;2023-03-01T15:42:41;7.60;99.90
20735;DHT22;10528;52.124;5.196;2023-03-01T15:47:52;7.60;99.90
20735;DHT22;10528;52.124;5.196;2023-03-01T15:50:23;7.60;99.90
20735;DHT22;10528;52.124;5.196;2023-03-01T15:52:53;7.60;99.90
20735;DHT22;10528;52.124;5.196;2023-03-01T15:55:25;7.50;99.90
20735;DHT22;10528;52.124;5.196;2023-03-01T15:58:13;7.60;99.90
20735;DHT22;10528;52.124;5.196;2023-03-01T16:00:43;7.60;99.90
20735;DHT22;10528;52.124;5.196;2023-03-01T16:03:26;7.50;99.90
20735;DHT22;10528;52.124;5.196;2023-03-01T16:05:53;7.60;99.90
20735;DHT22;10528;52.124;5.196;2023-03-01T16:08:20;7.50;99.90
20735;DHT22;10528;52.124;5.196;2023-03-01T16:10:47;7.50;99.90
20735;DHT22;10528;52.124;5.196;2023-03-01T16:13:16;7.50;99.90
20735;DHT22;10528;52.124;5.196;2023-03-01T16:15:43;7.40;99.90
20735;DHT22;10528;52.124;5.196;2023-03-01T16:18:10;7.30;99.90
20735;DHT22;10528;52.124;5.196;2023-03-01T16:20:38;7.30;99.90
20735;DHT22;10528;52.124;5.196;2023-03-01T16:23:08;7.30;99.90
20735;DHT22;10528;52.124;5.196;2023-03-01T16:25:37;7.30;99.90
20735;DHT22;10528;52.124;5.196;2023-03-01T16:28:04;7.30;99.90
20735;DHT22;10528;52.124;5.196;2023-03-01T16:30:39;7.20;99.90
20735;DHT22;10528;52.124;5.196;2023-03-01T16:33:07;7.30;99.90
20735;DHT22;10528;52.124;5.196;2023-03-01T16:35:55;7.20;99.90
20735;DHT22;10528;52.124;5.196;2023-03-01T16:38:22;7.10;99.90
20735;DHT22;10528;52.124;5.196;2023-03-01T16:40:51;7.10;99.90
20735;DHT22;10528;52.124;5.196;2023-03-01T16:43:18;7.10;99.90
20735;DHT22;10528;52.124;5.196;2023-03-01T16:45:46;7.10;99.90
20735;DHT22;10528;52.124;5.196;2023-03-01T16:48:13;7.10;99.90
20735;DHT22;10528;52.124;5.196;2023-03-01T16:50:40;7.00;99.90
20735;DHT22;10528;52.124;5.196;2023-03-01T16:53:08;7.00;99.90
20735;DHT22;10528;52.124;5.196;2023-03-01T16:55:35;7.00;99.90
20735;DHT22;10528;52.124;5.196;2023-03-01T16:58:02;6.90;99.90
20735;DHT22;10528;52.124;5.196;2023-03-01T17:00:30;6.90;99.90
20735;DHT22;10528;52.124;5.196;2023-03-01T17:02:57;6.80;99.90
20735;DHT22;10528;52.124;5.196;2023-03-01T17:05:24;6.70;99.90
20735;DHT22;10528;52.124;5.196;2023-03-01T17:07:52;6.60;99.90
20735;DHT22;10528;52.124;5.196;2023-03-01T17:10:22;6.60;99.90
20735;DHT22;10528;52.124;5.196;2023-03-01T17:12:49;6.60;99.90
20735;DHT22;10528;52.124;5.196;2023-03-01T17:15:16;6.50;99.90
20735;DHT22;10528;52.124;5.196;2023-03-01T17:17:44;6.50;99.90
20735;DHT22;10528;52.124;5.196;2023-03-01T17:20:11;6.50;99.90
20735;DHT22;10528;52.124;5.196;2023-03-01T17:22:38;6.50;99.90
20735;DHT22;10528;52.124;5.196;2023-03-01T17:25:08;6.40;99.90
20735;DHT22;10528;52.124;5.196;2023-03-01T17:27:37;6.20;99.90
20735;DHT22;10528;52.124;5.196;2023-03-01T17:30:06;6.10;99.90
20735;DHT22;10528;52.124;5.196;2023-03-01T17:32:35;6.10;99.90
20735;DHT22;10528;52.124;5.196;2023-03-01T17:35:02;6.10;99.90
20735;DHT22;10528;52.124;5.196;2023-03-01T17:37:29;6.00;99.90
20735;DHT22;10528;52.124;5.196;2023-03-01T17:39:56;6.00;99.90
20735;DHT22;10528;52.124;5.196;2023-03-01T17:42:23;6.00;99.90
20735;DHT22;10528;52.124;5.196;2023-03-01T17:44:50;5.90;99.90
20735;DHT22;10528;52.124;5.196;2023-03-01T17:47:17;5.90;99.90
20735;DHT22;10528;52.124;5.196;2023-03-01T17:49:43;5.80;99.90
20735;DHT22;10528;52.124;5.196;2023-03-01T17:52:10;5.70;99.90
20735;DHT22;10528;52.124;5.196;2023-03-01T17:54:37;5.70;99.90
20735;DHT22;10528;52.124;5.196;2023-03-01T17:57:04;5.60;99.90